Woodworth, Louisiana
Current Conditions -  °F | °C
As of 12:53 PM on Friday 24 Oct 2014 (Local Time) from KAEX Reporting Station
Clear Clear  
Wind Chill: 22°   Ceiling: Unl
Heat Index: 22°   Visibility: 10mi
Dew Point:   Wind: 5mph
Humidity: 41%   Direction: 310°NW
Pressure: 30.13"   Gusts: NA
Location:  31.15°N, 92.5°W
Report Text: KAEX 241753Z 31004KT 10SM CLR 22/08 A3013 RMK AO2 SLP205 T02170078 10222 20067 58012
Loading
Personal Weather Stations






























Interactive Weather Map
Tropical Storm Tracking
New forecast layout! Learn more

10-Day Weather Forecast

Advertisements
Track Severe Weather on mobile